Time;durP1;ratioP1;P1;durP2;ratioP2;P2;SDS_P1;SDS_P2;PMS_P1;PMS_P2;Temp;Humidity;BMP_temperature;BMP_pressure;BME280_temperature;BME280_humidity;BME280_pressure;Samples;Min_cycle;Max_cycle;Signal;HPM_P1;HPM_P2
2022/03/11 00:00:17;;;;;;;15.23;10.87;;;10.80;1.00;;;;;;6185884;22;20177;-92
2022/03/11 00:02:44;;;;;;;14.23;8.90;;;10.80;1.00;;;;;;6162567;22;20168;-92
2022/03/11 00:05:30;;;;;;;14.70;10.10;;;11.10;1.00;;;;;;6181195;23;20177;-93
2022/03/11 00:07:55;;;;;;;12.43;9.43;;;10.90;1.00;;;;;;6168368;23;20160;-94
2022/03/11 00:10:24;;;;;;;13.77;10.10;;;10.90;1.00;;;;;;6168586;23;20251;-93
2022/03/11 00:12:53;;;;;;;13.90;9.80;;;11.10;1.00;;;;;;6167255;22;20173;-91
2022/03/11 00:15:19;;;;;;;12.53;9.20;;;11.10;1.00;;;;;;6141509;23;20208;-92
2022/03/11 00:17:47;;;;;;;11.67;8.90;;;11.20;1.00;;;;;;6140424;23;20161;-91
2022/03/11 00:20:20;;;;;;;10.43;8.37;;;11.10;1.00;;;;;;6165303;23;20176;-93
2022/03/11 00:22:52;;;;;;;12.03;8.77;;;11.20;1.00;;;;;;6165888;23;20158;-93
2022/03/11 00:25:21;;;;;;;12.57;8.87;;;11.00;1.00;;;;;;6164647;23;20153;-93
2022/03/11 00:27:47;;;;;;;13.27;8.97;;;10.90;1.00;;;;;;6145221;23;20188;-93
2022/03/11 00:30:18;;;;;;;11.63;8.77;;;10.80;1.00;;;;;;6168062;23;20181;-93
2022/03/11 00:32:45;;;;;;;12.80;8.80;;;10.70;1.00;;;;;;6169092;23;20189;-92
2022/03/11 00:35:12;;;;;;;13.23;9.30;;;10.80;1.00;;;;;;6168164;23;20149;-94
2022/03/11 00:37:40;;;;;;;10.67;7.70;;;10.80;1.00;;;;;;6164442;23;20607;-93
2022/03/11 00:40:11;;;;;;;11.67;8.40;;;10.80;1.00;;;;;;6164121;23;20241;-92
2022/03/11 00:42:43;;;;;;;12.27;8.87;;;10.70;1.00;;;;;;6142714;23;20193;-93
2022/03/11 00:45:10;;;;;;;14.20;9.20;;;10.60;1.00;;;;;;6166712;23;20158;-93
2022/03/11 00:47:35;;;;;;;13.13;9.57;;;10.90;1.00;;;;;;6142993;23;20587;-93
2022/03/11 00:50:02;;;;;;;12.77;9.50;;;10.70;1.00;;;;;;6192946;23;20159;-92
2022/03/11 00:52:30;;;;;;;13.07;9.43;;;10.30;1.00;;;;;;6167783;23;20158;-92
2022/03/11 00:54:56;;;;;;;13.57;9.00;;;10.30;1.00;;;;;;6145069;23;20490;-93
2022/03/11 00:57:23;;;;;;;10.97;8.60;;;10.50;1.00;;;;;;6207872;23;20169;-92
2022/03/11 00:59:49;;;;;;;13.57;8.73;;;10.30;1.00;;;;;;6148629;23;20161;-92
2022/03/11 01:02:22;;;;;;;12.73;8.47;;;10.30;1.00;;;;;;6207510;23;20522;-93
2022/03/11 01:04:59;;;;;;;11.47;7.60;;;10.30;1.00;;;;;;6175343;23;20613;-91
2022/03/11 01:07:26;;;;;;;9.63;7.40;;;10.20;1.00;;;;;;6168346;23;20166;-93
2022/03/11 01:09:57;;;;;;;10.90;7.70;;;10.00;1.00;;;;;;6154946;23;20154;-91
2022/03/11 01:12:25;;;;;;;10.37;7.23;;;9.90;1.00;;;;;;6203704;23;20172;-92
2022/03/11 01:14:52;;;;;;;8.83;6.57;;;9.90;1.00;;;;;;6178251;23;20149;-92
2022/03/11 01:17:20;;;;;;;12.47;7.90;;;9.90;1.00;;;;;;6165142;23;20160;-92
2022/03/11 01:20:10;;;;;;;10.23;7.10;;;9.90;1.00;;;;;;6142587;23;20653;-92
2022/03/11 01:22:45;;;;;;;8.87;6.47;;;9.80;1.00;;;;;;6141544;23;20178;-93
2022/03/11 01:25:11;;;;;;;9.27;6.60;;;9.90;1.00;;;;;;6164449;23;20181;-95
2022/03/11 01:27:41;;;;;;;9.57;6.53;;;10.00;1.00;;;;;;6181295;23;20213;-92
2022/03/11 01:30:13;;;;;;;8.60;7.07;;;9.80;1.00;;;;;;6171516;23;20188;-91
2022/03/11 01:32:43;;;;;;;10.37;6.43;;;10.00;1.00;;;;;;6166723;23;20149;-91
2022/03/11 01:35:11;;;;;;;9.60;6.87;;;10.30;1.00;;;;;;6166812;23;20157;-94
2022/03/11 01:37:38;;;;;;;10.30;7.03;;;10.30;1.00;;;;;;6142565;23;20149;-92
2022/03/11 01:40:05;;;;;;;8.70;6.43;;;10.30;1.00;;;;;;6166281;23;20603;-93
2022/03/11 01:42:34;;;;;;;11.53;6.53;;;10.20;1.00;;;;;;6140368;23;20162;-92
2022/03/11 01:45:03;;;;;;;11.23;6.57;;;10.40;1.00;;;;;;6165100;23;20158;-91
2022/03/11 01:47:28;;;;;;;8.37;5.93;;;10.40;1.00;;;;;;6167453;23;20257;-92
2022/03/11 01:49:57;;;;;;;11.17;7.40;;;10.20;1.00;;;;;;6168103;23;20152;-92
2022/03/11 01:52:25;;;;;;;9.30;6.10;;;10.10;1.00;;;;;;6167861;23;20150;-92
2022/03/11 01:54:57;;;;;;;9.97;6.57;;;9.90;1.00;;;;;;6148508;23;20222;-92
2022/03/11 01:57:26;;;;;;;10.57;6.53;;;10.20;1.00;;;;;;6187233;22;20141;-91
2022/03/11 01:59:51;;;;;;;8.77;5.90;;;10.20;1.00;;;;;;6188774;23;20238;-93
2022/03/11 02:02:26;;;;;;;8.47;6.03;;;10.20;1.00;;;;;;6186233;23;20170;-92
2022/03/11 02:04:58;;;;;;;9.17;6.60;;;10.20;1.00;;;;;;6182645;23;20157;-93
2022/03/11 02:07:24;;;;;;;13.33;7.37;;;10.20;1.00;;;;;;6170720;23;20157;-93
2022/03/11 02:09:52;;;;;;;10.53;7.00;;;10.20;1.00;;;;;;6167207;23;20162;-93
2022/03/11 02:12:31;;;;;;;10.10;6.97;;;10.10;1.00;;;;;;6165579;23;20247;-94
2022/03/11 02:14:57;;;;;;;8.67;6.03;;;10.50;1.00;;;;;;6144282;23;20595;-93
2022/03/11 02:17:37;;;;;;;10.87;6.27;;;10.30;1.00;;;;;;6172693;23;20165;-92
2022/03/11 02:20:04;;;;;;;8.37;6.40;;;10.30;1.00;;;;;;6184541;23;20146;-91
2022/03/11 02:22:36;;;;;;;9.43;6.23;;;10.30;1.00;;;;;;6172953;23;20150;-92
2022/03/11 02:25:05;;;;;;;8.53;6.20;;;10.50;1.00;;;;;;6167920;23;20236;-93
2022/03/11 02:27:42;;;;;;;8.63;6.30;;;10.30;1.00;;;;;;6168957;23;20244;-92
2022/03/11 02:30:16;;;;;;;8.23;5.67;;;10.40;1.00;;;;;;6171492;23;20168;-93
2022/03/11 02:33:00;;;;;;;8.80;6.20;;;10.40;1.00;;;;;;6187397;22;20136;-94
2022/03/11 02:35:32;;;;;;;10.97;6.27;;;10.30;1.00;;;;;;6150363;23;20185;-93
2022/03/11 02:37:58;;;;;;;9.53;6.50;;;10.40;1.00;;;;;;6168933;23;20215;-94
2022/03/11 02:40:32;;;;;;;8.13;6.20;;;10.40;1.00;;;;;;6167216;23;20553;-92
2022/03/11 02:43:01;;;;;;;9.50;6.20;;;10.30;1.00;;;;;;6167126;23;20172;-93
2022/03/11 02:45:27;;;;;;;8.10;6.23;;;10.40;1.00;;;;;;6167456;23;20158;-92
2022/03/11 02:47:53;;;;;;;9.53;6.07;;;10.50;1.00;;;;;;6168584;23;20145;-93
2022/03/11 02:50:18;;;;;;;7.77;6.23;;;10.30;1.00;;;;;;6166475;23;20240;-94
2022/03/11 02:52:47;;;;;;;8.90;6.27;;;10.30;1.00;;;;;;6173634;23;20165;-95
2022/03/11 02:55:15;;;;;;;9.97;5.83;;;10.20;1.00;;;;;;6176198;23;20165;-92
2022/03/11 02:57:42;;;;;;;9.83;5.90;;;10.20;1.00;;;;;;6163995;23;20217;-92
2022/03/11 03:00:08;;;;;;;10.17;6.53;;;10.30;1.00;;;;;;6185304;23;20168;-90
2022/03/11 03:02:36;;;;;;;8.83;6.00;;;10.00;1.00;;;;;;6164052;23;20142;-92
2022/03/11 03:05:09;;;;;;;8.97;6.30;;;10.20;1.00;;;;;;6185503;22;20141;-92
2022/03/11 03:07:38;;;;;;;9.97;6.67;;;10.10;1.00;;;;;;6178547;23;20188;-92
2022/03/11 03:10:12;;;;;;;8.27;6.50;;;10.20;1.00;;;;;;6184268;23;20150;-91
2022/03/11 03:12:42;;;;;;;9.00;5.50;;;10.20;1.00;;;;;;6161503;23;20162;-92
2022/03/11 03:15:16;;;;;;;9.40;6.17;;;10.30;1.00;;;;;;6180928;23;20241;-91
2022/03/11 03:17:44;;;;;;;9.53;6.40;;;10.10;1.00;;;;;;6159613;23;20161;-94
2022/03/11 03:20:50;;;;;;;8.03;5.87;;;10.00;1.00;;;;;;6172877;23;20173;-95
2022/03/11 03:23:17;;;;;;;7.27;5.77;;;10.00;1.00;;;;;;6167443;23;20182;-92
2022/03/11 03:25:44;;;;;;;8.03;5.90;;;10.10;1.00;;;;;;6192275;23;20236;-94
2022/03/11 03:28:11;;;;;;;7.80;5.67;;;10.10;1.00;;;;;;6167397;23;20240;-92
2022/03/11 03:30:39;;;;;;;10.03;5.90;;;10.00;1.00;;;;;;6167816;23;20276;-93
2022/03/11 03:33:05;;;;;;;7.87;6.33;;;10.10;1.00;;;;;;6167286;23;20212;-92
2022/03/11 03:35:31;;;;;;;8.80;6.30;;;9.90;1.00;;;;;;6199898;22;20162;-96
2022/03/11 03:37:59;;;;;;;8.00;6.17;;;9.80;1.00;;;;;;6161328;23;20162;-95
2022/03/11 03:40:27;;;;;;;10.97;6.77;;;9.90;1.00;;;;;;6211011;22;20145;-96
2022/03/11 03:42:52;;;;;;;10.13;7.07;;;10.00;1.00;;;;;;6186161;23;20154;-93
2022/03/11 03:45:21;;;;;;;7.93;5.93;;;9.90;1.00;;;;;;6188153;22;20209;-93
2022/03/11 03:47:54;;;;;;;11.93;6.33;;;9.90;1.00;;;;;;6214291;22;20142;-94
2022/03/11 03:50:22;;;;;;;7.83;5.87;;;10.00;1.00;;;;;;6171339;23;20197;-93
2022/03/11 03:52:49;;;;;;;8.97;6.10;;;10.00;1.00;;;;;;6142172;22;20208;-90
2022/03/11 03:55:15;;;;;;;9.70;6.30;;;10.10;1.00;;;;;;6165410;23;20150;-93
2022/03/11 03:57:40;;;;;;;9.03;6.50;;;10.20;1.00;;;;;;6165443;23;20149;-92
2022/03/11 04:00:08;;;;;;;11.80;6.70;;;10.10;1.00;;;;;;6178924;22;20196;-91
2022/03/11 04:02:50;;;;;;;9.67;6.70;;;9.90;1.00;;;;;;6186815;23;20150;-93
2022/03/11 04:05:19;;;;;;;12.80;6.33;;;9.80;1.00;;;;;;6141253;23;20162;-93
2022/03/11 04:07:45;;;;;;;9.07;7.10;;;9.50;1.00;;;;;;6140684;23;20157;-92
2022/03/11 04:10:12;;;;;;;8.03;6.00;;;9.50;1.00;;;;;;6140469;23;20190;-92
2022/03/11 04:12:40;;;;;;;9.50;6.87;;;9.40;1.00;;;;;;6165810;23;20137;-92
2022/03/11 04:15:06;;;;;;;10.07;6.63;;;9.70;1.00;;;;;;6141132;23;20244;-92
2022/03/11 04:17:32;;;;;;;13.57;7.03;;;9.60;1.00;;;;;;6174744;23;20657;-94
2022/03/11 04:19:59;;;;;;;9.10;6.67;;;9.80;1.00;;;;;;6152003;22;20166;-93
2022/03/11 04:22:26;;;;;;;10.13;6.57;;;9.60;1.00;;;;;;6188367;23;20199;-94
2022/03/11 04:24:52;;;;;;;9.03;6.83;;;9.80;1.00;;;;;;6183280;22;20208;-93
2022/03/11 04:27:18;;;;;;;8.87;6.90;;;10.10;1.00;;;;;;6187478;23;20162;-92
2022/03/11 04:29:44;;;;;;;8.03;6.67;;;10.00;1.00;;;;;;6175501;23;20234;-94
2022/03/11 04:32:11;;;;;;;11.57;6.40;;;9.90;1.00;;;;;;6146300;23;20193;-92
2022/03/11 04:34:40;;;;;;;9.77;6.53;;;9.90;1.00;;;;;;6172182;23;20209;-92
2022/03/11 04:37:16;;;;;;;14.37;7.03;;;9.90;1.00;;;;;;6173082;23;20189;-92
2022/03/11 04:39:42;;;;;;;11.57;7.47;;;9.90;1.00;;;;;;6175060;23;20150;-93
2022/03/11 04:42:09;;;;;;;13.17;7.47;;;9.90;1.00;;;;;;6151584;23;20173;-92
2022/03/11 04:44:37;;;;;;;10.97;6.97;;;9.80;1.00;;;;;;6152951;23;20228;-93
2022/03/11 04:47:09;;;;;;;9.37;6.47;;;9.80;1.00;;;;;;6154477;23;20209;-91
2022/03/11 04:49:39;;;;;;;9.27;6.70;;;9.60;1.00;;;;;;6177668;23;20159;-92
2022/03/11 04:52:07;;;;;;;11.03;6.40;;;9.40;1.00;;;;;;6177554;23;20209;-93
2022/03/11 04:54:36;;;;;;;12.50;7.37;;;9.40;1.00;;;;;;6180784;23;20149;-92
2022/03/11 04:57:05;;;;;;;12.07;6.87;;;9.30;1.00;;;;;;6179388;22;20181;-92
2022/03/11 04:59:39;;;;;;;15.10;7.23;;;9.30;1.00;;;;;;6213605;22;20168;-92
2022/03/11 05:02:08;;;;;;;10.87;7.10;;;9.40;1.00;;;;;;6188034;22;20168;-92
2022/03/11 05:04:42;;;;;;;10.03;7.03;;;9.30;1.00;;;;;;6181611;23;20157;-92
2022/03/11 05:10:48;;;;;;;12.03;7.47;;;9.30;1.00;;;;;;6197238;23;20565;-94
2022/03/11 05:16:44;;;;;;;12.17;7.03;;;9.40;1.00;;;;;;6194529;22;20221;-92
2022/03/11 05:19:11;;;;;;;9.90;7.30;;;9.40;1.00;;;;;;6178983;23;20221;-91
2022/03/11 05:21:37;;;;;;;13.87;8.33;;;9.40;1.00;;;;;;6179642;22;20158;-92
2022/03/11 05:24:05;;;;;;;11.60;7.37;;;9.50;1.00;;;;;;6170921;22;20649;-93
2022/03/11 05:26:38;;;;;;;9.27;6.80;;;9.40;1.00;;;;;;6169154;23;20154;-94
2022/03/11 05:29:12;;;;;;;9.50;7.30;;;9.50;1.00;;;;;;6188026;23;20168;-92
2022/03/11 05:35:01;;;;;;;11.40;7.50;;;9.10;1.00;;;;;;6210121;22;20158;-89
2022/03/11 05:37:29;;;;;;;12.67;7.57;;;9.10;1.00;;;;;;6189206;22;20146;-92
2022/03/11 05:39:58;;;;;;;9.97;7.37;;;9.20;1.00;;;;;;6189678;22;20157;-95
2022/03/11 05:42:25;;;;;;;10.27;6.97;;;9.20;1.00;;;;;;6185602;23;20145;-92
2022/03/11 05:44:52;;;;;;;10.87;7.50;;;9.30;1.00;;;;;;6188022;22;20161;-92
2022/03/11 05:47:17;;;;;;;11.40;7.67;;;9.20;1.00;;;;;;6189101;22;20182;-92
2022/03/11 05:49:46;;;;;;;10.03;7.10;;;9.20;1.00;;;;;;6184985;23;20238;-96
2022/03/11 05:52:20;;;;;;;10.87;7.60;;;9.20;1.00;;;;;;6183370;23;20200;-91
2022/03/11 05:58:11;;;;;;;12.63;8.23;;;9.00;1.00;;;;;;6212837;22;20149;-92
2022/03/11 06:00:51;;;;;;;13.50;7.90;;;9.20;1.00;;;;;;6189113;22;20161;-93
2022/03/11 06:03:18;;;;;;;14.33;7.73;;;9.00;1.00;;;;;;6189415;22;20188;-93
2022/03/11 06:05:51;;;;;;;9.63;7.30;;;9.10;1.00;;;;;;6164859;22;20138;-92
2022/03/11 06:08:25;;;;;;;12.67;7.47;;;8.90;1.00;;;;;;6188542;23;20185;-93
2022/03/11 06:10:54;;;;;;;14.00;8.17;;;9.00;1.00;;;;;;6188404;23;20191;-93
2022/03/11 06:13:25;;;;;;;15.33;8.77;;;9.00;1.00;;;;;;6177247;23;20174;-92
2022/03/11 06:15:53;;;;;;;11.67;7.40;;;9.20;1.00;;;;;;6172931;23;20165;-92
2022/03/11 06:18:20;;;;;;;12.63;8.07;;;9.20;1.00;;;;;;6173141;23;20184;-92
2022/03/11 06:20:52;;;;;;;13.10;8.03;;;9.30;1.00;;;;;;6149554;23;20181;-93
2022/03/11 06:23:21;;;;;;;19.67;12.17;;;9.30;1.00;;;;;;6169668;23;20182;-94
2022/03/11 06:29:10;;;;;;;11.23;7.10;;;9.40;1.00;;;;;;6204084;22;20149;-92
2022/03/11 06:35:23;;;;;;;11.97;7.67;;;9.40;1.00;;;;;;6196516;22;20205;-90
2022/03/11 06:38:00;;;;;;;14.30;8.13;;;9.50;1.00;;;;;;6174809;23;20149;-89
2022/03/11 06:40:44;;;;;;;15.23;9.00;;;9.40;1.00;;;;;;6145939;23;20168;-91
2022/03/11 06:46:34;;;;;;;13.37;8.73;;;9.50;1.00;;;;;;6198995;23;20525;-91
2022/03/11 06:49:07;;;;;;;12.53;7.93;;;9.40;1.00;;;;;;6155107;23;20171;-93
2022/03/11 06:51:44;;;;;;;13.63;8.27;;;9.60;1.00;;;;;;6204669;22;20191;-93
2022/03/11 06:57:35;;;;;;;13.83;8.70;;;9.60;1.00;;;;;;6194764;22;20261;-84
2022/03/11 07:00:11;;;;;;;13.07;8.07;;;9.90;1.00;;;;;;6213800;22;20154;-91
2022/03/11 07:02:43;;;;;;;15.40;8.57;;;9.80;1.00;;;;;;6186613;23;20330;-89
2022/03/11 07:05:18;;;;;;;10.47;7.63;;;9.80;1.00;;;;;;6212307;23;20218;-91
2022/03/11 07:07:49;;;;;;;14.07;8.00;;;9.90;1.00;;;;;;6155091;23;20161;-91
2022/03/11 07:10:47;;;;;;;13.57;8.87;;;9.80;1.00;;;;;;6181431;22;20150;-91
2022/03/11 07:13:14;;;;;;;11.97;8.77;;;9.90;1.00;;;;;;6213792;22;20140;-95
2022/03/11 07:15:39;;;;;;;13.83;9.00;;;9.90;1.00;;;;;;6187869;22;20156;-93
2022/03/11 07:18:26;;;;;;;16.00;8.80;;;9.90;1.00;;;;;;6163098;22;20161;-93
2022/03/11 07:20:53;;;;;;;15.90;8.70;;;10.20;1.00;;;;;;6185777;22;20153;-89
2022/03/11 07:23:31;;;;;;;14.37;7.93;;;10.20;1.00;;;;;;6185797;22;20166;-90
2022/03/11 07:26:05;;;;;;;14.43;8.43;;;10.10;1.00;;;;;;6186772;22;20153;-93
2022/03/11 07:29:24;;;;;;;13.83;8.43;;;10.20;1.00;;;;;;6169821;22;20132;-93
2022/03/11 07:31:50;;;;;;;14.00;8.73;;;10.30;1.00;;;;;;6167752;23;20185;-90
2022/03/11 07:34:23;;;;;;;11.57;8.33;;;10.40;1.00;;;;;;6167221;23;20146;-92
2022/03/11 07:36:51;;;;;;;12.67;8.60;;;10.50;1.00;;;;;;6165272;23;20162;-89
2022/03/11 07:39:17;;;;;;;13.77;8.37;;;10.50;1.00;;;;;;6165015;23;20150;-93
2022/03/11 07:41:44;;;;;;;14.50;8.47;;;10.60;1.00;;;;;;6166152;23;20161;-90
2022/03/11 07:44:13;;;;;;;11.33;8.30;;;10.60;1.00;;;;;;6163877;23;20200;-92
2022/03/11 07:46:39;;;;;;;11.87;8.40;;;10.60;1.00;;;;;;6166731;23;20160;-91
2022/03/11 07:49:05;;;;;;;18.30;8.63;;;10.60;1.00;;;;;;6168374;23;20180;-90
2022/03/11 07:51:32;;;;;;;17.43;8.77;;;10.70;1.00;;;;;;6170280;23;20181;-91
2022/03/11 07:54:07;;;;;;;13.13;8.23;;;10.70;1.00;;;;;;6167189;22;20146;-92
2022/03/11 07:56:33;;;;;;;18.77;9.03;;;10.70;1.00;;;;;;6167711;23;20192;-91
2022/03/11 07:58:59;;;;;;;16.60;9.23;;;10.80;1.00;;;;;;6171155;23;20169;-92
2022/03/11 08:01:25;;;;;;;15.97;9.20;;;10.70;1.00;;;;;;6183827;23;20133;-91
2022/03/11 08:03:53;;;;;;;16.17;9.27;;;11.10;1.00;;;;;;6179846;23;20255;-92
2022/03/11 08:06:20;;;;;;;13.70;7.80;;;11.00;1.00;;;;;;6166844;23;20153;-91
2022/03/11 08:08:50;;;;;;;14.97;9.30;;;11.00;1.00;;;;;;6166849;23;20164;-90
2022/03/11 08:11:18;;;;;;;13.30;8.43;;;11.20;1.00;;;;;;6165800;23;20245;-90
2022/03/11 08:13:45;;;;;;;14.00;8.10;;;11.30;1.00;;;;;;6167782;23;20156;-89
2022/03/11 08:16:12;;;;;;;13.37;8.67;;;11.40;1.00;;;;;;6204691;23;20142;-90
2022/03/11 08:18:38;;;;;;;15.73;8.77;;;11.50;1.00;;;;;;6170812;23;20154;-92
2022/03/11 08:21:03;;;;;;;12.70;8.47;;;11.60;1.00;;;;;;6184911;23;20201;-90
2022/03/11 08:23:32;;;;;;;19.07;9.30;;;11.50;1.00;;;;;;6177736;23;20169;-92
2022/03/11 08:26:00;;;;;;;14.07;8.80;;;11.70;1.00;;;;;;6166605;23;20173;-91
2022/03/11 08:28:26;;;;;;;16.60;8.90;;;11.80;1.00;;;;;;6165792;23;20176;-91
2022/03/11 08:30:52;;;;;;;13.23;8.30;;;12.00;1.00;;;;;;6170090;23;20185;-91
2022/03/11 08:33:22;;;;;;;15.97;8.80;;;12.20;1.00;;;;;;6171086;23;20161;-89
2022/03/11 08:35:50;;;;;;;14.13;9.23;;;12.10;1.00;;;;;;6167785;23;20578;-91
2022/03/11 08:38:18;;;;;;;21.67;14.13;;;12.00;1.00;;;;;;6156085;23;20154;-91
2022/03/11 08:41:19;;;;;;;15.37;9.17;;;12.10;1.00;;;;;;6179273;23;20181;-92
2022/03/11 08:43:49;;;;;;;20.90;16.47;;;12.20;1.00;;;;;;6172499;23;20227;-93
2022/03/11 08:46:15;;;;;;;13.80;10.67;;;12.10;1.00;;;;;;6171779;23;20178;-90
2022/03/11 08:48:43;;;;;;;115.87;89.50;;;12.30;1.00;;;;;;6203087;22;20222;-90
2022/03/11 08:51:09;;;;;;;19.80;11.13;;;12.40;1.00;;;;;;6176944;23;20192;-91
2022/03/11 08:53:41;;;;;;;12.07;8.73;;;12.50;1.00;;;;;;6197614;22;20209;-91
2022/03/11 08:56:07;;;;;;;12.30;8.80;;;12.70;1.00;;;;;;6166986;23;20217;-91
2022/03/11 08:58:33;;;;;;;14.20;8.50;;;12.60;1.00;;;;;;6167941;23;20165;-93
2022/03/11 09:01:05;;;;;;;13.73;8.80;;;12.70;1.00;;;;;;6168989;23;20234;-91
2022/03/11 09:03:34;;;;;;;14.77;8.83;;;12.80;1.00;;;;;;6147569;23;20201;-91
2022/03/11 09:05:59;;;;;;;15.83;8.90;;;12.90;1.00;;;;;;6171155;23;20155;-93
2022/03/11 09:08:28;;;;;;;20.67;9.50;;;13.10;1.00;;;;;;6171833;23;20309;-93
2022/03/11 09:10:57;;;;;;;13.30;8.87;;;13.30;1.00;;;;;;6146534;23;20181;-92
2022/03/11 09:13:24;;;;;;;13.60;9.47;;;13.50;1.00;;;;;;6173427;23;20158;-93
2022/03/11 09:15:49;;;;;;;12.33;8.33;;;13.60;1.00;;;;;;6173039;23;20174;-90
2022/03/11 09:18:15;;;;;;;20.67;9.40;;;13.50;1.00;;;;;;6176379;23;20157;-90
2022/03/11 09:20:44;;;;;;;15.20;8.53;;;13.60;1.00;;;;;;6186716;23;20142;-90
2022/03/11 09:23:11;;;;;;;17.17;8.60;;;13.60;1.00;;;;;;6186501;23;20158;-90
2022/03/11 09:25:38;;;;;;;9.90;7.97;;;13.50;1.00;;;;;;6182968;23;20253;-90
2022/03/11 09:28:06;;;;;;;14.20;8.50;;;13.50;1.00;;;;;;6184936;23;20142;-92
2022/03/11 09:30:34;;;;;;;10.90;8.30;;;13.70;1.00;;;;;;6188059;22;20219;-90
2022/03/11 09:33:00;;;;;;;12.37;8.57;;;13.70;1.00;;;;;;6188556;22;20183;-90
2022/03/11 09:35:26;;;;;;;12.60;7.93;;;13.60;1.00;;;;;;6187974;23;20173;-89
2022/03/11 09:37:56;;;;;;;10.67;7.23;;;13.40;1.00;;;;;;6212273;22;20142;-89
2022/03/11 09:40:23;;;;;;;11.30;7.60;;;13.50;1.00;;;;;;6163244;22;20161;-91
2022/03/11 09:42:50;;;;;;;11.63;7.50;;;13.60;1.00;;;;;;6187570;23;20162;-89
2022/03/11 09:45:19;;;;;;;13.07;7.80;;;13.80;1.00;;;;;;6187934;23;20172;-89
2022/03/11 09:47:47;;;;;;;11.00;7.70;;;13.70;1.00;;;;;;6185598;23;20147;-91
2022/03/11 09:50:13;;;;;;;12.37;7.60;;;13.80;1.00;;;;;;6188131;22;20138;-90
2022/03/11 09:52:42;;;;;;;9.33;7.67;;;13.80;1.00;;;;;;6183974;23;20147;-90
2022/03/11 09:55:08;;;;;;;10.23;7.30;;;13.70;1.00;;;;;;6212885;22;20201;-92
2022/03/11 09:57:34;;;;;;;9.47;7.30;;;13.60;1.00;;;;;;6187830;22;20178;-90
2022/03/11 09:59:59;;;;;;;11.23;7.63;;;13.70;1.00;;;;;;6185867;22;20154;-90
2022/03/11 10:02:25;;;;;;;13.23;8.20;;;14.00;1.00;;;;;;6188206;22;20157;-92
2022/03/11 10:04:58;;;;;;;14.80;7.57;;;13.90;1.00;;;;;;6181303;23;20691;-90
2022/03/11 10:07:30;;;;;;;10.87;7.97;;;14.10;1.00;;;;;;6168178;23;20155;-91
2022/03/11 10:10:23;;;;;;;11.73;7.50;;;14.20;1.00;;;;;;6179743;23;20159;-90
2022/03/11 10:12:56;;;;;;;12.00;7.50;;;14.20;1.00;;;;;;6200212;23;20171;-91
2022/03/11 10:15:29;;;;;;;11.87;7.37;;;14.40;1.00;;;;;;6171122;23;20242;-91
2022/03/11 10:17:56;;;;;;;9.73;6.90;;;14.70;1.00;;;;;;6168031;23;20159;-90
2022/03/11 10:20:25;;;;;;;9.17;7.20;;;14.70;1.00;;;;;;6166151;23;20151;-92
2022/03/11 10:22:51;;;;;;;12.53;6.83;;;14.80;1.00;;;;;;6149209;23;20170;-90
2022/03/11 10:25:29;;;;;;;11.27;7.60;;;14.70;1.00;;;;;;6175980;23;20166;-90
2022/03/11 10:28:08;;;;;;;12.10;7.93;;;14.60;1.00;;;;;;6171755;23;20289;-92
2022/03/11 10:30:42;;;;;;;11.03;8.47;;;14.50;1.00;;;;;;6169978;23;20265;-90
2022/03/11 10:33:12;;;;;;;9.33;6.97;;;14.70;1.00;;;;;;6172141;23;20179;-92
2022/03/11 10:35:49;;;;;;;15.73;7.50;;;14.80;1.00;;;;;;6150134;23;20179;-91
2022/03/11 10:38:20;;;;;;;11.43;8.03;;;14.90;1.00;;;;;;6171412;23;20152;-91
2022/03/11 10:40:57;;;;;;;12.47;7.50;;;15.00;1.00;;;;;;6168839;23;20196;-90
2022/03/11 10:43:31;;;;;;;10.50;7.63;;;15.00;1.00;;;;;;6167000;23;20153;-91
2022/03/11 10:46:03;;;;;;;11.80;7.20;;;15.10;1.00;;;;;;6168608;23;20216;-92
2022/03/11 10:48:54;;;;;;;9.57;7.13;;;15.20;1.00;;;;;;6171060;23;20148;-91
2022/03/11 10:51:34;;;;;;;9.30;7.00;;;15.10;1.00;;;;;;6174393;22;20211;-92
2022/03/11 10:54:09;;;;;;;11.77;6.60;;;15.20;1.00;;;;;;6175434;23;20217;-93
2022/03/11 10:56:39;;;;;;;8.90;6.67;;;15.40;1.00;;;;;;6170401;23;20184;-93
2022/03/11 10:59:20;;;;;;;10.17;6.70;;;15.60;1.00;;;;;;6198141;23;20218;-93
2022/03/11 11:01:49;;;;;;;11.20;7.43;;;15.50;1.00;;;;;;6170668;23;20201;-91
2022/03/11 11:04:17;;;;;;;12.07;6.90;;;15.70;1.00;;;;;;6147267;23;20177;-91
2022/03/11 11:06:45;;;;;;;12.87;6.57;;;15.80;1.00;;;;;;6149240;23;20162;-92
2022/03/11 11:09:13;;;;;;;10.43;7.00;;;15.80;1.00;;;;;;6179954;23;20239;-90
2022/03/11 11:11:40;;;;;;;15.70;9.93;;;16.00;1.00;;;;;;6180361;23;20192;-91
2022/03/11 11:14:12;;;;;;;8.37;6.70;;;16.00;1.00;;;;;;6201389;23;20142;-94
2022/03/11 11:16:44;;;;;;;9.80;6.00;;;16.00;1.00;;;;;;6171884;23;20200;-91
2022/03/11 11:19:15;;;;;;;11.67;6.93;;;16.10;1.00;;;;;;6176848;23;20157;-92
2022/03/11 11:21:45;;;;;;;12.60;8.50;;;16.20;1.00;;;;;;6182230;23;20177;-92
2022/03/11 11:24:13;;;;;;;9.03;5.90;;;16.20;1.00;;;;;;6180609;22;20185;-94
2022/03/11 11:26:45;;;;;;;8.87;5.53;;;16.20;1.00;;;;;;6183715;23;20145;-93
2022/03/11 11:29:13;;;;;;;7.50;4.90;;;16.20;1.00;;;;;;6184805;22;20161;-91
2022/03/11 11:31:42;;;;;;;8.10;5.70;;;16.20;1.00;;;;;;6162443;22;20173;-88
2022/03/11 11:34:38;;;;;;;8.30;5.60;;;16.30;1.00;;;;;;6187764;23;20161;-93
2022/03/11 11:37:08;;;;;;;10.30;5.93;;;16.50;1.00;;;;;;6182666;23;20162;-92
2022/03/11 11:39:40;;;;;;;10.70;5.60;;;16.80;1.00;;;;;;6183644;23;20180;-93
2022/03/11 11:42:09;;;;;;;13.30;5.93;;;16.80;1.00;;;;;;6158719;23;20173;-93
2022/03/11 11:44:37;;;;;;;8.70;5.33;;;16.80;1.00;;;;;;6159665;23;20161;-93
2022/03/11 11:47:15;;;;;;;7.33;5.10;;;16.70;1.00;;;;;;6184455;23;20242;-93
2022/03/11 11:49:45;;;;;;;7.83;4.77;;;16.70;1.00;;;;;;6183448;23;20160;-94
2022/03/11 11:52:27;;;;;;;8.43;4.30;;;16.80;1.00;;;;;;6185161;23;20185;-93
2022/03/11 11:55:10;;;;;;;6.77;4.03;;;16.80;1.00;;;;;;6209671;22;20149;-91
2022/03/11 11:57:36;;;;;;;9.77;4.23;;;16.80;1.00;;;;;;6183396;22;20150;-92
2022/03/11 12:00:05;;;;;;;7.30;4.70;;;16.80;1.00;;;;;;6185809;22;20184;-92
2022/03/11 12:02:35;;;;;;;8.73;5.00;;;16.90;1.00;;;;;;6183395;23;20147;-93
2022/03/11 12:05:21;;;;;;;10.00;4.60;;;17.20;1.00;;;;;;6184078;23;20138;-93
2022/03/11 12:07:49;;;;;;;8.90;4.77;;;17.40;1.00;;;;;;6181773;22;20145;-92
2022/03/11 12:10:27;;;;;;;5.90;4.27;;;17.50;1.00;;;;;;6179728;23;20173;-91
2022/03/11 12:13:04;;;;;;;6.33;4.00;;;17.50;1.00;;;;;;6167039;23;20154;-91
2022/03/11 12:15:38;;;;;;;8.70;4.23;;;17.70;1.00;;;;;;6167301;23;20232;-91
2022/03/11 12:18:04;;;;;;;6.90;4.30;;;17.80;1.00;;;;;;6168800;23;20168;-90
2022/03/11 12:20:36;;;;;;;9.47;5.07;;;17.90;1.00;;;;;;6170904;23;20158;-92
2022/03/11 12:23:19;;;;;;;5.57;4.37;;;17.80;1.00;;;;;;6169102;23;20241;-90
2022/03/11 12:25:49;;;;;;;6.67;4.20;;;17.60;1.00;;;;;;6170859;23;20220;-93
2022/03/11 12:28:24;;;;;;;8.60;4.20;;;17.40;1.00;;;;;;6172041;23;20158;-95
2022/03/11 12:30:50;;;;;;;9.80;5.13;;;17.60;1.00;;;;;;6171685;23;20188;-91
2022/03/11 12:33:28;;;;;;;9.33;5.37;;;17.60;1.00;;;;;;6176699;23;20486;-88
2022/03/11 12:35:55;;;;;;;8.37;4.13;;;17.50;1.00;;;;;;6180599;23;20149;-89
2022/03/11 12:38:25;;;;;;;10.97;4.47;;;17.70;1.00;;;;;;6180075;23;20147;-90
2022/03/11 12:40:52;;;;;;;7.40;3.97;;;17.80;1.00;;;;;;6177407;23;20146;-91
2022/03/11 12:43:22;;;;;;;6.80;3.83;;;17.60;1.00;;;;;;6179175;23;20159;-90
2022/03/11 12:45:53;;;;;;;10.60;3.83;;;17.70;1.00;;;;;;6171199;23;20225;-91
2022/03/11 12:48:36;;;;;;;6.63;4.33;;;17.80;1.00;;;;;;6171146;23;20518;-91
2022/03/11 12:51:07;;;;;;;7.93;4.00;;;17.90;1.00;;;;;;6147175;23;20198;-92
2022/03/11 12:53:39;;;;;;;9.37;4.70;;;18.00;1.00;;;;;;6169191;23;20183;-92
2022/03/11 12:56:07;;;;;;;5.70;4.13;;;18.10;1.00;;;;;;6168472;23;20256;-92
2022/03/11 12:58:40;;;;;;;6.20;4.07;;;18.10;1.00;;;;;;6171444;23;20177;-90
2022/03/11 13:01:10;;;;;;;6.43;3.90;;;18.20;1.00;;;;;;6179085;22;20149;-92
2022/03/11 13:03:43;;;;;;;6.60;4.23;;;18.30;1.00;;;;;;6183273;23;20177;-88
2022/03/11 13:06:11;;;;;;;5.50;3.67;;;18.30;1.00;;;;;;6188260;22;20201;-92
2022/03/11 13:08:42;;;;;;;7.93;4.00;;;18.40;1.00;;;;;;6178618;23;20162;-92
2022/03/11 13:11:13;;;;;;;8.30;4.93;;;18.40;1.00;;;;;;6180241;23;20193;-91
2022/03/11 13:14:13;;;;;;;9.57;3.97;;;18.50;1.00;;;;;;6170127;23;20583;-93
2022/03/11 13:16:40;;;;;;;5.97;4.20;;;18.30;1.00;;;;;;6173333;23;20200;-89
2022/03/11 13:19:05;;;;;;;7.87;4.53;;;18.40;1.00;;;;;;6147660;23;20154;-92
2022/03/11 13:21:33;;;;;;;7.87;4.17;;;18.30;1.00;;;;;;6169667;23;20241;-90
2022/03/11 13:23:59;;;;;;;7.57;4.90;;;18.40;1.00;;;;;;6170251;23;20187;-93
2022/03/11 13:26:25;;;;;;;7.00;4.23;;;18.50;1.00;;;;;;6171898;23;20163;-96
2022/03/11 13:28:53;;;;;;;6.80;4.17;;;18.50;1.00;;;;;;6176647;23;20217;-93
2022/03/11 13:31:33;;;;;;;8.13;4.50;;;18.50;1.00;;;;;;6178896;23;20183;-89
2022/03/11 13:34:10;;;;;;;8.83;4.70;;;18.50;1.00;;;;;;6174851;23;20160;-94
2022/03/11 13:37:49;;;;;;;8.23;4.30;;;18.50;1.00;;;;;;6202804;23;20162;-96